Time,TemperatureF,DewpointF,PressureIn,WindDirection,WindDirectionDegrees,WindSpeedMPH,WindSpeedGustMPH,Humidity,HourlyPrecipIn,Conditions,Clouds,dailyrainin,SoftwareType,DateUTC
2013-05-08 00:04:00,67.0,57.0,30.12,SSE,157,1.0,2.0,72,0.00,,,0.00,TxWx,2013-05-08 04:04:00,
2013-05-08 00:09:00,67.0,58.0,30.12,SSE,157,2.0,3.0,72,0.00,,,0.00,TxWx,2013-05-08 04:09:00,
2013-05-08 00:14:00,67.0,58.0,30.12,ESE,112,3.0,3.0,73,0.00,,,0.00,TxWx,2013-05-08 04:14:00,
2013-05-08 00:19:00,67.0,58.0,30.12,SSW,202,3.0,3.0,73,0.00,,,0.00,TxWx,2013-05-08 04:19:00,
2013-05-08 00:24:00,67.0,58.0,30.12,SE,135,2.0,4.0,73,0.00,,,0.00,TxWx,2013-05-08 04:24:00,
2013-05-08 00:32:00,67.0,58.0,30.12,SE,135,3.0,5.0,74,0.00,,,0.00,TxWx,2013-05-08 04:32:00,
2013-05-08 00:37:00,66.0,58.0,30.12,East,90,3.0,3.0,75,0.00,,,0.00,TxWx,2013-05-08 04:37:00,
2013-05-08 00:42:00,66.0,58.0,30.12,ESE,112,1.0,2.0,75,0.00,,,0.00,TxWx,2013-05-08 04:42:00,
2013-05-08 00:47:00,66.0,58.0,30.12,SE,135,0.0,1.0,76,0.00,,,0.00,TxWx,2013-05-08 04:47:00,
2013-05-08 00:52:00,66.0,58.0,30.12,SE,135,1.0,2.0,76,0.00,,,0.00,TxWx,2013-05-08 04:52:00,
2013-05-08 00:58:00,65.0,57.0,30.11,SSE,157,2.0,3.0,76,0.00,,,0.00,TxWx,2013-05-08 04:58:00,
2013-05-08 01:03:00,65.0,57.0,30.11,SE,135,0.0,1.0,77,0.00,,,0.00,TxWx,2013-05-08 05:03:00,
2013-05-08 01:08:00,65.0,58.0,30.11,ESE,112,0.0,1.0,77,0.00,,,0.00,TxWx,2013-05-08 05:08:00,
2013-05-08 01:13:00,65.0,58.0,30.11,ESE,112,2.0,2.0,78,0.00,,,0.00,TxWx,2013-05-08 05:13:00,
2013-05-08 01:18:00,65.0,58.0,30.11,ESE,112,3.0,3.0,78,0.00,,,0.00,TxWx,2013-05-08 05:18:00,
2013-05-08 01:23:00,65.0,58.0,30.11,SSE,157,1.0,1.0,79,0.00,,,0.00,TxWx,2013-05-08 05:23:00,
2013-05-08 01:28:00,65.0,58.0,30.11,SSE,157,0.0,0.0,79,0.00,,,0.00,TxWx,2013-05-08 05:28:00,
2013-05-08 01:33:00,65.0,58.0,30.11,SSE,157,1.0,2.0,79,0.00,,,0.00,TxWx,2013-05-08 05:33:00,
2013-05-08 01:38:00,64.0,58.0,30.11,SE,135,0.0,1.0,80,0.00,,,0.00,TxWx,2013-05-08 05:38:00,
2013-05-08 01:43:00,64.0,58.0,30.10,SE,135,0.0,0.0,80,0.00,,,0.00,TxWx,2013-05-08 05:43:00,
2013-05-08 01:48:00,64.0,58.0,30.10,SE,135,0.0,0.0,80,0.00,,,0.00,TxWx,2013-05-08 05:48:00,
2013-05-08 01:53:00,64.0,58.0,30.10,SE,135,0.0,0.0,81,0.00,,,0.00,TxWx,2013-05-08 05:53:00,
2013-05-08 01:58:00,64.0,58.0,30.10,North,0,0.0,1.0,81,0.00,,,0.00,TxWx,2013-05-08 05:58:00,
2013-05-08 02:03:00,64.0,58.0,30.10,East,90,0.0,0.0,82,0.00,,,0.00,TxWx,2013-05-08 06:03:00,
2013-05-08 02:12:00,63.0,57.0,30.10,East,90,1.0,1.0,82,0.00,,,0.00,TxWx,2013-05-08 06:12:00,
2013-05-08 02:20:00,63.0,58.0,30.09,East,90,0.0,0.0,84,0.00,,,0.00,TxWx,2013-05-08 06:20:00,
2013-05-08 02:25:00,63.0,58.0,30.09,East,90,0.0,0.0,84,0.00,,,0.00,TxWx,2013-05-08 06:25:00,
2013-05-08 02:30:00,63.0,58.0,30.09,East,90,0.0,0.0,85,0.00,,,0.00,TxWx,2013-05-08 06:30:00,
2013-05-08 02:35:00,62.0,58.0,30.09,East,90,0.0,0.0,86,0.00,,,0.00,TxWx,2013-05-08 06:35:00,
2013-05-08 02:40:00,62.0,58.0,30.09,East,90,0.0,0.0,86,0.00,,,0.00,TxWx,2013-05-08 06:40:00,
2013-05-08 02:47:00,74.0,60.0,30.09,ENE,67,5.0,6.0,62,0.00,,,0.00,TxWx,2013-05-08 06:47:00,
2013-05-08 02:48:00,74.0,60.0,30.09,East,90,6.0,8.0,62,0.00,,,0.00,TxWx,2013-05-08 06:48:00,
2013-05-08 02:49:00,62.0,58.0,30.09,East,90,0.0,1.0,87,0.00,,,0.00,TxWx,2013-05-08 06:49:00,
2013-05-08 02:50:00,73.0,59.0,30.08,ENE,67,6.0,8.0,62,0.00,,,0.00,TxWx,2013-05-08 06:50:00,
2013-05-08 02:51:00,74.0,60.0,30.08,ENE,67,8.0,8.0,62,0.00,,,0.00,TxWx,2013-05-08 06:51:00,
2013-05-08 02:52:00,74.0,60.0,30.08,NE,45,16.0,16.0,62,0.00,,,0.00,TxWx,2013-05-08 06:52:00,
2013-05-08 02:54:00,62.0,58.0,30.09,East,90,0.0,0.0,87,0.00,,,0.00,TxWx,2013-05-08 06:54:00,
2013-05-08 02:59:00,62.0,58.0,30.09,East,90,0.0,0.0,87,0.00,,,0.00,TxWx,2013-05-08 06:59:00,
2013-05-08 03:04:00,62.0,58.0,30.09,East,90,0.0,1.0,87,0.00,,,0.00,TxWx,2013-05-08 07:04:00,
2013-05-08 03:09:00,62.0,58.0,30.09,East,90,0.0,0.0,88,0.00,,,0.00,TxWx,2013-05-08 07:09:00,
2013-05-08 03:14:00,62.0,58.0,30.10,East,90,1.0,1.0,88,0.00,,,0.00,TxWx,2013-05-08 07:14:00,
2013-05-08 03:19:00,62.0,58.0,30.10,East,90,0.0,0.0,88,0.00,,,0.00,TxWx,2013-05-08 07:19:00,
2013-05-08 03:24:00,62.0,58.0,30.10,East,90,0.0,0.0,88,0.00,,,0.00,TxWx,2013-05-08 07:24:00,
2013-05-08 03:29:00,62.0,58.0,30.10,East,90,0.0,0.0,88,0.00,,,0.00,TxWx,2013-05-08 07:29:00,
2013-05-08 03:34:00,62.0,58.0,30.10,East,90,0.0,0.0,88,0.00,,,0.00,TxWx,2013-05-08 07:34:00,
2013-05-08 03:40:00,61.0,58.0,30.10,East,90,1.0,1.0,89,0.00,,,0.00,TxWx,2013-05-08 07:40:00,
2013-05-08 03:45:00,61.0,58.0,30.10,East,90,0.0,0.0,89,0.00,,,0.00,TxWx,2013-05-08 07:45:00,
2013-05-08 03:50:00,61.0,58.0,30.10,East,90,0.0,0.0,89,0.00,,,0.00,TxWx,2013-05-08 07:50:00,
2013-05-08 03:55:00,61.0,58.0,30.10,East,90,0.0,0.0,90,0.00,,,0.00,TxWx,2013-05-08 07:55:00,
2013-05-08 04:00:00,61.0,58.0,30.10,ENE,67,0.0,1.0,90,0.00,,,0.00,TxWx,2013-05-08 08:00:00,
2013-05-08 04:05:00,61.0,58.0,30.10,ENE,67,0.0,0.0,90,0.00,,,0.00,TxWx,2013-05-08 08:05:00,
2013-05-08 04:10:00,61.0,58.0,30.10,NE,45,0.0,1.0,91,0.00,,,0.00,TxWx,2013-05-08 08:10:00,
2013-05-08 04:15:00,61.0,58.0,30.10,NE,45,1.0,1.0,91,0.00,,,0.00,TxWx,2013-05-08 08:15:00,
2013-05-08 04:20:00,60.0,57.0,30.09,NNE,22,1.0,2.0,91,0.00,,,0.00,TxWx,2013-05-08 08:20:00,
2013-05-08 04:25:00,60.0,58.0,30.09,North,0,4.0,4.0,92,0.00,,,0.00,TxWx,2013-05-08 08:25:00,
2013-05-08 04:30:00,60.0,58.0,30.09,North,0,3.0,3.0,92,0.00,,,0.00,TxWx,2013-05-08 08:30:00,
2013-05-08 04:35:00,60.0,58.0,30.09,North,0,1.0,1.0,93,0.00,,,0.00,TxWx,2013-05-08 08:35:00,
2013-05-08 04:40:00,60.0,58.0,30.09,North,0,3.0,3.0,93,0.00,,,0.00,TxWx,2013-05-08 08:40:00,
2013-05-08 04:45:00,60.0,58.0,30.09,North,0,0.0,0.0,93,0.00,,,0.00,TxWx,2013-05-08 08:45:00,
2013-05-08 04:50:00,60.0,58.0,30.09,North,0,0.0,1.0,93,0.00,,,0.00,TxWx,2013-05-08 08:50:00,
2013-05-08 04:56:00,60.0,58.0,30.09,WNW,292,0.0,0.0,93,0.00,,,0.00,TxWx,2013-05-08 08:56:00,
2013-05-08 05:01:00,60.0,58.0,30.09,SW,225,0.0,0.0,93,0.00,,,0.00,TxWx,2013-05-08 09:01:00,
2013-05-08 05:06:00,60.0,58.0,30.10,SSW,202,0.0,1.0,94,0.00,,,0.00,TxWx,2013-05-08 09:06:00,
2013-05-08 05:11:00,60.0,58.0,30.10,SE,135,0.0,0.0,94,0.00,,,0.00,TxWx,2013-05-08 09:11:00,
2013-05-08 05:16:00,60.0,58.0,30.10,SSE,157,1.0,1.0,94,0.00,,,0.00,TxWx,2013-05-08 09:16:00,
2013-05-08 05:21:00,59.0,57.0,30.10,SE,135,0.0,0.0,94,0.00,,,0.00,TxWx,2013-05-08 09:21:00,
2013-05-08 05:26:00,59.0,57.0,30.10,SE,135,0.0,0.0,94,0.00,,,0.00,TxWx,2013-05-08 09:26:00,
2013-05-08 05:31:00,59.0,57.0,30.10,SW,225,0.0,0.0,94,0.00,,,0.00,TxWx,2013-05-08 09:31:00,
2013-05-08 05:36:00,59.0,57.0,30.10,SW,225,1.0,2.0,94,0.00,,,0.00,TxWx,2013-05-08 09:36:00,
2013-05-08 05:41:00,59.0,57.0,30.10,SW,225,0.0,0.0,95,0.00,,,0.00,TxWx,2013-05-08 09:41:00,
2013-05-08 05:46:00,59.0,57.0,30.10,SW,225,1.0,1.0,95,0.00,,,0.00,TxWx,2013-05-08 09:46:00,
2013-05-08 05:51:00,59.0,58.0,30.10,SW,225,0.0,1.0,95,0.00,,,0.00,TxWx,2013-05-08 09:51:00,
2013-05-08 05:56:00,59.0,58.0,30.11,SW,225,0.0,0.0,95,0.00,,,0.00,TxWx,2013-05-08 09:56:00,
2013-05-08 06:01:00,59.0,58.0,30.11,SW,225,0.0,0.0,95,0.00,,,0.00,TxWx,2013-05-08 10:01:00,
2013-05-08 06:07:00,59.0,58.0,30.11,SW,225,0.0,1.0,96,0.00,,,0.00,TxWx,2013-05-08 10:07:00,
2013-05-08 06:12:00,59.0,58.0,30.11,SW,225,0.0,0.0,96,0.00,,,0.00,TxWx,2013-05-08 10:12:00,
2013-05-08 06:17:00,59.0,58.0,30.11,East,90,1.0,1.0,96,0.00,,,0.00,TxWx,2013-05-08 10:17:00,
2013-05-08 06:22:00,59.0,58.0,30.11,ENE,67,1.0,2.0,96,0.00,,,0.00,TxWx,2013-05-08 10:22:00,
2013-05-08 06:27:00,59.0,58.0,30.11,East,90,2.0,3.0,96,0.00,,,0.00,TxWx,2013-05-08 10:27:00,
2013-05-08 06:32:00,59.0,58.0,30.11,East,90,1.0,3.0,96,0.00,,,0.00,TxWx,2013-05-08 10:32:00,
2013-05-08 06:37:00,59.0,58.0,30.12,ENE,67,0.0,0.0,97,0.00,,,0.00,TxWx,2013-05-08 10:37:00,
2013-05-08 06:42:00,59.0,58.0,30.12,NE,45,0.0,1.0,97,0.00,,,0.00,TxWx,2013-05-08 10:42:00,
2013-05-08 06:47:00,60.0,59.0,30.12,East,90,0.0,1.0,97,0.00,,,0.00,TxWx,2013-05-08 10:47:00,
2013-05-08 06:52:00,60.0,59.0,30.12,ENE,67,0.0,1.0,97,0.00,,,0.00,TxWx,2013-05-08 10:52:00,
2013-05-08 06:57:00,61.0,60.0,30.12,NNE,22,3.0,3.0,97,0.00,,,0.00,TxWx,2013-05-08 10:57:00,
2013-05-08 07:02:00,61.0,60.0,30.12,NE,45,3.0,4.0,97,0.00,,,0.00,TxWx,2013-05-08 11:02:00,
2013-05-08 07:08:00,61.0,60.0,30.12,North,0,2.0,4.0,97,0.00,,,0.00,TxWx,2013-05-08 11:08:00,
2013-05-08 07:13:00,62.0,61.0,30.12,NNE,22,3.0,3.0,96,0.00,,,0.00,TxWx,2013-05-08 11:13:00,
2013-05-08 07:18:00,62.0,61.0,30.13,North,0,0.0,1.0,95,0.00,,,0.00,TxWx,2013-05-08 11:18:00,
2013-05-08 07:23:00,62.0,60.0,30.12,North,0,3.0,3.0,95,0.00,,,0.00,TxWx,2013-05-08 11:23:00,
2013-05-08 07:28:00,63.0,61.0,30.12,North,0,0.0,0.0,94,0.00,,,0.00,TxWx,2013-05-08 11:28:00,
2013-05-08 07:33:00,63.0,61.0,30.13,ENE,67,0.0,1.0,93,0.00,,,0.00,TxWx,2013-05-08 11:33:00,
2013-05-08 07:38:00,63.0,60.0,30.13,ENE,67,1.0,2.0,92,0.00,,,0.00,TxWx,2013-05-08 11:38:00,
2013-05-08 07:43:00,64.0,61.0,30.13,ENE,67,1.0,1.0,91,0.00,,,0.00,TxWx,2013-05-08 11:43:00,
2013-05-08 07:48:00,64.0,61.0,30.13,East,90,3.0,3.0,90,0.00,,,0.00,TxWx,2013-05-08 11:48:00,
2013-05-08 07:53:00,64.0,61.0,30.13,ENE,67,1.0,2.0,90,0.00,,,0.00,TxWx,2013-05-08 11:53:00,
2013-05-08 07:58:00,64.0,61.0,30.13,East,90,3.0,4.0,89,0.00,,,0.00,TxWx,2013-05-08 11:58:00,
2013-05-08 08:03:00,64.0,61.0,30.13,ENE,67,3.0,3.0,89,0.00,,,0.00,TxWx,2013-05-08 12:03:00,
2013-05-08 08:08:00,64.0,61.0,30.13,ENE,67,2.0,3.0,89,0.00,,,0.00,TxWx,2013-05-08 12:08:00,
2013-05-08 08:14:00,64.0,61.0,30.13,NE,45,2.0,3.0,89,0.00,,,0.00,TxWx,2013-05-08 12:14:00,
2013-05-08 08:19:00,65.0,61.0,30.13,NE,45,3.0,3.0,88,0.00,,,0.00,TxWx,2013-05-08 12:19:00,
2013-05-08 08:24:00,65.0,61.0,30.13,ESE,112,3.0,3.0,87,0.00,,,0.00,TxWx,2013-05-08 12:24:00,
2013-05-08 08:29:00,66.0,62.0,30.14,East,90,3.0,3.0,86,0.00,,,0.00,TxWx,2013-05-08 12:29:00,
2013-05-08 08:34:00,66.0,61.0,30.13,ENE,67,2.0,3.0,84,0.00,,,0.00,TxWx,2013-05-08 12:34:00,
2013-05-08 08:39:00,66.0,61.0,30.13,East,90,1.0,1.0,84,0.00,,,0.00,TxWx,2013-05-08 12:39:00,
2013-05-08 08:44:00,66.0,61.0,30.13,East,90,0.0,1.0,83,0.00,,,0.00,TxWx,2013-05-08 12:44:00,
2013-05-08 08:49:00,66.0,60.0,30.12,NE,45,2.0,3.0,83,0.00,,,0.00,TxWx,2013-05-08 12:49:00,
2013-05-08 08:54:00,67.0,61.0,30.12,NE,45,3.0,3.0,83,0.00,,,0.00,TxWx,2013-05-08 12:54:00,
2013-05-08 08:59:00,67.0,61.0,30.12,ENE,67,0.0,1.0,81,0.00,,,0.00,TxWx,2013-05-08 12:59:00,
2013-05-08 09:04:00,68.0,61.0,30.12,ENE,67,1.0,1.0,80,0.00,,,0.00,TxWx,2013-05-08 13:04:00,
2013-05-08 09:09:00,68.0,61.0,30.12,SE,135,3.0,3.0,79,0.00,,,0.00,TxWx,2013-05-08 13:09:00,
2013-05-08 09:14:00,69.0,62.0,30.12,East,90,1.0,2.0,78,0.00,,,0.00,TxWx,2013-05-08 13:14:00,
2013-05-08 09:20:00,69.0,61.0,30.12,NE,45,0.0,0.0,77,0.00,,,0.00,TxWx,2013-05-08 13:20:00,
2013-05-08 09:25:00,69.0,61.0,30.12,ESE,112,3.0,3.0,77,0.00,,,0.00,TxWx,2013-05-08 13:25:00,
2013-05-08 09:30:00,69.0,61.0,30.11,SSE,157,3.0,3.0,77,0.00,,,0.00,TxWx,2013-05-08 13:30:00,
2013-05-08 09:35:00,69.0,61.0,30.12,SSE,157,0.0,0.0,76,0.00,,,0.00,TxWx,2013-05-08 13:35:00,
2013-05-08 09:40:00,69.0,61.0,30.11,ENE,67,2.0,3.0,76,0.00,,,0.00,TxWx,2013-05-08 13:40:00,
2013-05-08 09:45:00,69.0,61.0,30.11,East,90,0.0,0.0,75,0.00,,,0.00,TxWx,2013-05-08 13:45:00,
2013-05-08 09:50:00,69.0,61.0,30.11,East,90,0.0,0.0,75,0.00,,,0.00,TxWx,2013-05-08 13:50:00,
2013-05-08 09:55:00,69.0,61.0,30.12,East,90,0.0,1.0,75,0.00,,,0.00,TxWx,2013-05-08 13:55:00,
2013-05-08 10:00:00,69.0,61.0,30.11,ESE,112,3.0,3.0,75,0.00,,,0.00,TxWx,2013-05-08 14:00:00,
2013-05-08 10:05:00,69.0,61.0,30.11,ESE,112,3.0,3.0,75,0.00,,,0.00,TxWx,2013-05-08 14:05:00,
2013-05-08 10:11:00,70.0,62.0,30.11,East,90,1.0,2.0,75,0.00,,,0.00,TxWx,2013-05-08 14:11:00,
2013-05-08 10:16:00,70.0,61.0,30.11,ESE,112,4.0,4.0,75,0.00,,,0.00,TxWx,2013-05-08 14:16:00,
2013-05-08 10:21:00,70.0,62.0,30.11,SSE,157,1.0,2.0,75,0.00,,,0.00,TxWx,2013-05-08 14:21:00,
2013-05-08 10:26:00,70.0,61.0,30.11,ESE,112,3.0,4.0,74,0.00,,,0.00,TxWx,2013-05-08 14:26:00,
2013-05-08 10:31:00,70.0,61.0,30.11,SSE,157,3.0,3.0,73,0.00,,,0.00,TxWx,2013-05-08 14:31:00,
2013-05-08 10:36:00,71.0,61.0,30.11,SSE,157,3.0,3.0,73,0.00,,,0.00,TxWx,2013-05-08 14:36:00,
2013-05-08 10:41:00,71.0,62.0,30.11,SSE,157,2.0,3.0,73,0.00,,,0.00,TxWx,2013-05-08 14:41:00,
2013-05-08 10:46:00,71.0,62.0,30.11,ESE,112,2.0,2.0,73,0.00,,,0.00,TxWx,2013-05-08 14:46:00,
2013-05-08 10:51:00,71.0,61.0,30.11,SE,135,0.0,0.0,71,0.00,,,0.00,TxWx,2013-05-08 14:51:00,
2013-05-08 10:56:00,72.0,62.0,30.10,ESE,112,1.0,1.0,71,0.00,,,0.00,TxWx,2013-05-08 14:56:00,
2013-05-08 11:01:00,72.0,61.0,30.10,NE,45,1.0,1.0,69,0.00,,,0.00,TxWx,2013-05-08 15:01:00,
2013-05-08 11:06:00,73.0,61.0,30.10,SE,135,3.0,6.0,67,0.00,,,0.00,TxWx,2013-05-08 15:06:00,
2013-05-08 11:11:00,73.0,61.0,30.10,ESE,112,3.0,3.0,67,0.00,,,0.00,TxWx,2013-05-08 15:11:00,
2013-05-08 11:17:00,73.0,60.0,30.09,South,180,3.0,4.0,65,0.00,,,0.00,TxWx,2013-05-08 15:17:00,
2013-05-08 11:22:00,73.0,60.0,30.10,East,90,6.0,6.0,65,0.00,,,0.00,TxWx,2013-05-08 15:22:00,
2013-05-08 11:27:00,73.0,59.0,30.09,SE,135,6.0,10.0,63,0.00,,,0.00,TxWx,2013-05-08 15:27:00,
2013-05-08 11:32:00,73.0,59.0,30.09,ESE,112,8.0,8.0,62,0.00,,,0.00,TxWx,2013-05-08 15:32:00,
2013-05-08 11:37:00,74.0,60.0,30.09,East,90,5.0,6.0,62,0.00,,,0.00,TxWx,2013-05-08 15:37:00,
2013-05-08 11:42:00,73.0,59.0,30.09,NE,45,8.0,10.0,61,0.00,,,0.00,TxWx,2013-05-08 15:42:00,
2013-05-08 11:48:00,74.0,60.0,30.08,East,90,6.0,7.0,62,0.00,,,0.00,TxWx,2013-05-08 15:48:00,
2013-05-08 11:53:00,73.0,59.0,30.08,ESE,112,5.0,6.0,62,0.00,,,0.00,TxWx,2013-05-08 15:53:00,
2013-05-08 11:58:00,73.0,59.0,30.08,East,90,6.0,8.0,62,0.00,,,0.00,TxWx,2013-05-08 15:58:00,
2013-05-08 12:03:00,73.0,59.0,30.08,East,90,10.0,14.0,62,0.00,,,0.00,TxWx,2013-05-08 16:03:00,
2013-05-08 12:09:00,72.0,58.0,30.08,ESE,112,11.0,14.0,63,0.00,,,0.00,TxWx,2013-05-08 16:09:00,
2013-05-08 12:14:00,72.0,60.0,30.08,SSE,157,8.0,11.0,65,0.00,,,0.00,TxWx,2013-05-08 16:14:00,
2013-05-08 12:19:00,71.0,60.0,30.08,South,180,6.0,6.0,68,0.00,,,0.00,TxWx,2013-05-08 16:19:00,
2013-05-08 12:24:00,71.0,61.0,30.08,SSW,202,5.0,7.0,70,0.00,,,0.00,TxWx,2013-05-08 16:24:00,
2013-05-08 12:29:00,71.0,61.0,30.07,SE,135,3.0,5.0,71,0.00,,,0.00,TxWx,2013-05-08 16:29:00,
2013-05-08 12:34:00,71.0,61.0,30.07,South,180,3.0,5.0,71,0.00,,,0.00,TxWx,2013-05-08 16:34:00,
2013-05-08 12:39:00,71.0,61.0,30.07,South,180,5.0,7.0,71,0.00,,,0.00,TxWx,2013-05-08 16:39:00,
2013-05-08 12:44:00,72.0,61.0,30.06,SW,225,5.0,6.0,70,0.00,,,0.00,TxWx,2013-05-08 16:44:00,
2013-05-08 12:49:00,72.0,61.0,30.05,SSE,157,2.0,3.0,69,0.00,,,0.00,TxWx,2013-05-08 16:49:00,
2013-05-08 12:54:00,73.0,62.0,30.05,SSE,157,1.0,1.0,69,0.00,,,0.00,TxWx,2013-05-08 16:54:00,
2013-05-08 12:59:00,73.0,62.0,30.05,SE,135,5.0,5.0,68,0.00,,,0.00,TxWx,2013-05-08 16:59:00,
2013-05-08 13:05:00,73.0,61.0,30.05,SSE,157,6.0,8.0,66,0.00,,,0.00,TxWx,2013-05-08 17:05:00,
2013-05-08 13:10:00,73.0,61.0,30.06,SSE,157,8.0,9.0,66,0.00,,,0.00,TxWx,2013-05-08 17:10:00,
2013-05-08 13:15:00,73.0,61.0,30.05,ESE,112,10.0,10.0,66,0.00,,,0.00,TxWx,2013-05-08 17:15:00,
2013-05-08 13:20:00,73.0,61.0,30.05,SE,135,4.0,5.0,66,0.00,,,0.00,TxWx,2013-05-08 17:20:00,
2013-05-08 13:25:00,73.0,60.0,30.05,ESE,112,1.0,3.0,65,0.00,,,0.00,TxWx,2013-05-08 17:25:00,
2013-05-08 13:30:00,73.0,60.0,30.05,SE,135,6.0,7.0,65,0.00,,,0.00,TxWx,2013-05-08 17:30:00,
2013-05-08 13:35:00,73.0,61.0,30.05,SSE,157,3.0,3.0,67,0.00,,,0.00,TxWx,2013-05-08 17:35:00,
2013-05-08 13:40:00,72.0,61.0,30.05,SSE,157,6.0,6.0,68,0.00,,,0.00,TxWx,2013-05-08 17:40:00,
2013-05-08 13:45:00,72.0,62.0,30.05,SSE,157,4.0,5.0,70,0.00,,,0.00,TxWx,2013-05-08 17:45:00,
2013-05-08 13:50:00,72.0,62.0,30.04,SE,135,2.0,3.0,72,0.00,,,0.00,TxWx,2013-05-08 17:50:00,
2013-05-08 13:55:00,72.0,63.0,30.04,East,90,0.0,0.0,74,0.00,,,0.00,TxWx,2013-05-08 17:55:00,
2013-05-08 14:00:00,72.0,63.0,30.04,SSE,157,0.0,1.0,74,0.00,,,0.00,TxWx,2013-05-08 18:00:00,
2013-05-08 14:06:00,72.0,63.0,30.04,ESE,112,3.0,3.0,74,0.00,,,0.00,TxWx,2013-05-08 18:06:00,
2013-05-08 14:11:00,72.0,59.0,30.04,East,90,8.0,10.0,65,0.00,,,0.00,TxWx,2013-05-08 18:11:00,
2013-05-08 14:16:00,72.0,60.0,30.04,East,90,5.0,6.0,66,0.00,,,0.00,TxWx,2013-05-08 18:16:00,
2013-05-08 14:21:00,72.0,60.0,30.04,East,90,5.0,5.0,66,0.00,,,0.00,TxWx,2013-05-08 18:21:00,
2013-05-08 14:26:00,72.0,59.0,30.04,ESE,112,5.0,5.0,64,0.00,,,0.00,TxWx,2013-05-08 18:26:00,
2013-05-08 14:31:00,73.0,60.0,30.04,East,90,0.0,1.0,66,0.00,,,0.00,TxWx,2013-05-08 18:31:00,
2013-05-08 14:36:00,72.0,60.0,30.04,ESE,112,0.0,1.0,65,0.00,,,0.00,TxWx,2013-05-08 18:36:00,
2013-05-08 14:41:00,72.0,60.0,30.03,ESE,112,1.0,2.0,65,0.00,,,0.00,TxWx,2013-05-08 18:41:00,
2013-05-08 14:46:00,73.0,61.0,30.03,ENE,67,0.0,1.0,66,0.00,,,0.00,TxWx,2013-05-08 18:46:00,
2013-05-08 14:51:00,73.0,60.0,30.02,ESE,112,0.0,1.0,65,0.00,,,0.00,TxWx,2013-05-08 18:51:00,
2013-05-08 14:56:00,73.0,60.0,30.02,ESE,112,0.0,0.0,64,0.00,,,0.00,TxWx,2013-05-08 18:56:00,
2013-05-08 15:01:00,73.0,60.0,30.02,ESE,112,0.0,0.0,63,0.00,,,0.00,TxWx,2013-05-08 19:01:00,
2013-05-08 15:02:00,63.0,60.0,30.00,SSE,157,3.0,5.0,92,0.00,,,0.00,TxWx,2013-05-08 19:02:00,
2013-05-08 15:03:00,63.0,60.0,30.00,SSE,157,1.0,2.0,92,0.00,,,0.00,TxWx,2013-05-08 19:03:00,
2013-05-08 15:04:00,63.0,60.0,30.00,ESE,112,1.0,3.0,92,0.00,,,0.00,TxWx,2013-05-08 19:04:00,
2013-05-08 15:06:00,74.0,60.0,30.01,ENE,67,1.0,2.0,62,0.00,,,0.00,TxWx,2013-05-08 19:06:00,
2013-05-08 15:12:00,74.0,59.0,30.01,NE,45,5.0,5.0,61,0.00,,,0.00,TxWx,2013-05-08 19:12:00,
2013-05-08 15:17:00,75.0,60.0,30.00,ENE,67,0.0,1.0,61,0.00,,,0.00,TxWx,2013-05-08 19:17:00,
2013-05-08 15:22:00,74.0,59.0,30.00,East,90,5.0,6.0,60,0.00,,,0.00,TxWx,2013-05-08 19:22:00,
2013-05-08 15:27:00,74.0,59.0,30.00,East,90,6.0,6.0,60,0.00,,,0.00,TxWx,2013-05-08 19:27:00,
2013-05-08 15:29:00,63.0,60.0,30.00,SSE,157,3.0,6.0,91,0.00,,,0.00,TxWx,2013-05-08 19:29:00,
2013-05-08 15:30:00,63.0,60.0,30.00,SSE,157,3.0,4.0,91,0.00,,,0.00,TxWx,2013-05-08 19:30:00,
2013-05-08 15:31:00,63.0,60.0,30.00,South,180,5.0,5.0,91,0.00,,,0.00,TxWx,2013-05-08 19:31:00,
2013-05-08 15:32:00,75.0,61.0,29.99,ESE,112,1.0,2.0,61,0.00,,,0.00,TxWx,2013-05-08 19:32:00,
2013-05-08 15:37:00,75.0,60.0,29.99,ENE,67,2.0,3.0,60,0.00,,,0.00,TxWx,2013-05-08 19:37:00,
2013-05-08 15:42:00,75.0,60.0,29.99,ENE,67,8.0,8.0,60,0.00,,,0.00,TxWx,2013-05-08 19:42:00,
2013-05-08 15:47:00,75.0,60.0,29.99,East,90,5.0,6.0,59,0.00,,,0.00,TxWx,2013-05-08 19:47:00,
2013-05-08 15:50:00,62.0,59.0,29.99,SE,135,2.0,3.0,92,0.00,,,0.00,TxWx,2013-05-08 19:50:00,
2013-05-08 15:51:00,62.0,59.0,29.99,SE,135,3.0,5.0,92,0.00,,,0.00,TxWx,2013-05-08 19:51:00,
2013-05-08 15:52:00,75.0,59.0,29.99,East,90,3.0,5.0,59,0.00,,,0.00,TxWx,2013-05-08 19:52:00,
2013-05-08 15:53:00,62.0,59.0,29.99,SE,135,2.0,3.0,92,0.00,,,0.00,TxWx,2013-05-08 19:53:00,
2013-05-08 15:54:00,62.0,59.0,29.99,ESE,112,2.0,3.0,92,0.00,,,0.00,TxWx,2013-05-08 19:54:00,
2013-05-08 15:55:00,62.0,59.0,29.99,SSE,157,3.0,4.0,92,0.00,,,0.00,TxWx,2013-05-08 19:55:00,
2013-05-08 15:56:00,62.0,59.0,29.99,SE,135,3.0,4.0,92,0.00,,,0.00,TxWx,2013-05-08 19:56:00,
2013-05-08 15:57:00,75.0,60.0,29.99,East,90,5.0,6.0,59,0.00,,,0.00,TxWx,2013-05-08 19:57:00,
2013-05-08 16:02:00,75.0,60.0,29.99,ESE,112,9.0,9.0,59,0.00,,,0.00,TxWx,2013-05-08 20:02:00,
2013-05-08 16:05:00,62.0,60.0,29.99,SSE,157,1.0,3.0,92,0.00,,,0.00,TxWx,2013-05-08 20:05:00,
2013-05-08 16:06:00,62.0,60.0,29.99,SSE,157,1.0,2.0,92,0.00,,,0.00,TxWx,2013-05-08 20:06:00,
2013-05-08 16:07:00,74.0,58.0,29.99,ESE,112,8.0,10.0,57,0.00,,,0.00,TxWx,2013-05-08 20:07:00,
2013-05-08 16:11:00,61.0,60.0,29.98,South,180,3.0,3.0,93,0.00,,,0.00,TxWx,2013-05-08 20:11:00,
2013-05-08 16:12:00,61.0,59.0,29.99,SE,135,4.0,4.0,93,0.00,,,0.00,TxWx,2013-05-08 20:12:00,
2013-05-08 16:13:00,74.0,60.0,29.99,ESE,112,6.0,7.0,61,0.00,,,0.00,TxWx,2013-05-08 20:13:00,
2013-05-08 16:14:00,61.0,59.0,29.99,South,180,3.0,3.0,93,0.00,,,0.00,TxWx,2013-05-08 20:14:00,
2013-05-08 16:18:00,73.0,61.0,30.01,ESE,112,12.0,15.0,66,0.00,,,0.01,TxWx,2013-05-08 20:18:00,
2013-05-08 16:23:00,69.0,61.0,30.02,ESE,112,8.0,11.0,76,0.60,,,0.07,TxWx,2013-05-08 20:23:00,
2013-05-08 16:28:00,68.0,62.0,30.02,ESE,112,5.0,6.0,82,0.60,,,0.11,TxWx,2013-05-08 20:28:00,
2013-05-08 16:33:00,67.0,62.0,30.01,East,90,5.0,6.0,84,0.60,,,0.16,TxWx,2013-05-08 20:33:00,
2013-05-08 16:38:00,66.0,62.0,30.02,SE,135,6.0,8.0,86,0.60,,,0.17,TxWx,2013-05-08 20:38:00,
2013-05-08 16:43:00,66.0,62.0,30.02,South,180,2.0,3.0,88,0.60,,,0.18,TxWx,2013-05-08 20:43:00,
2013-05-08 16:48:00,66.0,62.0,30.02,SSE,157,4.0,5.0,89,0.60,,,0.19,TxWx,2013-05-08 20:48:00,
2013-05-08 16:53:00,66.0,63.0,30.02,ESE,112,0.0,1.0,90,0.60,,,0.19,TxWx,2013-05-08 20:53:00,
2013-05-08 16:58:00,66.0,63.0,30.01,South,180,3.0,3.0,91,0.60,,,0.20,TxWx,2013-05-08 20:58:00,
2013-05-08 17:03:00,66.0,63.0,30.01,SSE,157,0.0,1.0,91,0.60,,,0.20,TxWx,2013-05-08 21:03:00,
2013-05-08 17:08:00,66.0,63.0,30.01,SE,135,0.0,0.0,92,0.60,,,0.20,TxWx,2013-05-08 21:08:00,
2013-05-08 17:12:00,60.0,59.0,29.97,ESE,112,0.0,1.0,95,0.00,,,0.00,TxWx,2013-05-08 21:12:00,
2013-05-08 17:13:00,60.0,59.0,29.97,SE,135,0.0,0.0,95,0.00,,,0.00,TxWx,2013-05-08 21:13:00,
2013-05-08 17:14:00,66.0,64.0,30.01,NNE,22,0.0,1.0,92,0.00,,,0.20,TxWx,2013-05-08 21:14:00,
2013-05-08 17:15:00,60.0,59.0,29.97,ESE,112,1.0,1.0,95,0.00,,,0.00,TxWx,2013-05-08 21:15:00,
2013-05-08 17:16:00,60.0,59.0,29.97,SSE,157,2.0,3.0,95,0.00,,,0.00,TxWx,2013-05-08 21:16:00,
2013-05-08 17:17:00,60.0,59.0,29.97,ESE,112,0.0,1.0,95,0.00,,,0.00,TxWx,2013-05-08 21:17:00,
2013-05-08 17:18:00,60.0,59.0,29.97,SSE,157,0.0,1.0,95,0.00,,,0.00,TxWx,2013-05-08 21:18:00,
2013-05-08 17:19:00,66.0,64.0,30.01,NNE,22,0.0,0.0,93,0.00,,,0.20,TxWx,2013-05-08 21:19:00,
2013-05-08 17:24:00,66.0,64.0,30.01,NNE,22,0.0,0.0,93,0.00,,,0.20,TxWx,2013-05-08 21:24:00,
2013-05-08 17:29:00,66.0,64.0,30.00,ENE,67,0.0,0.0,94,0.00,,,0.20,TxWx,2013-05-08 21:29:00,
2013-05-08 17:34:00,66.0,64.0,30.00,ENE,67,3.0,4.0,94,0.00,,,0.20,TxWx,2013-05-08 21:34:00,
2013-05-08 17:39:00,66.0,64.0,29.99,NE,45,6.0,7.0,95,0.00,,,0.20,TxWx,2013-05-08 21:39:00,
2013-05-08 17:44:00,66.0,64.0,29.99,NNE,22,3.0,6.0,95,0.00,,,0.20,TxWx,2013-05-08 21:44:00,
2013-05-08 17:49:00,66.0,65.0,29.99,East,90,1.0,2.0,95,0.00,,,0.20,TxWx,2013-05-08 21:49:00,
2013-05-08 17:54:00,66.0,65.0,29.99,NE,45,2.0,3.0,95,0.00,,,0.20,TxWx,2013-05-08 21:54:00,
2013-05-08 17:59:00,66.0,65.0,29.99,East,90,1.0,1.0,95,0.00,,,0.20,TxWx,2013-05-08 21:59:00,
2013-05-08 18:04:00,66.0,65.0,29.99,ENE,67,0.0,0.0,95,0.00,,,0.20,TxWx,2013-05-08 22:04:00,
2013-05-08 18:09:00,67.0,66.0,29.99,ENE,67,0.0,0.0,95,0.00,,,0.20,TxWx,2013-05-08 22:09:00,
2013-05-08 18:14:00,66.0,64.0,29.99,ESE,112,1.0,1.0,95,0.00,,,0.20,TxWx,2013-05-08 22:14:00,
2013-05-08 18:19:00,66.0,64.0,29.98,East,90,4.0,5.0,95,0.00,,,0.20,TxWx,2013-05-08 22:19:00,
2013-05-08 18:25:00,66.0,64.0,29.98,SE,135,0.0,0.0,94,0.00,,,0.20,TxWx,2013-05-08 22:25:00,
2013-05-08 18:30:00,67.0,65.0,29.98,ESE,112,0.0,0.0,94,0.00,,,0.20,TxWx,2013-05-08 22:30:00,
2013-05-08 18:35:00,67.0,65.0,29.98,ESE,112,0.0,0.0,94,0.00,,,0.20,TxWx,2013-05-08 22:35:00,
2013-05-08 18:40:00,67.0,65.0,29.98,ESE,112,0.0,1.0,93,0.00,,,0.20,TxWx,2013-05-08 22:40:00,
2013-05-08 18:45:00,67.0,65.0,29.98,ESE,112,0.0,1.0,93,0.00,,,0.20,TxWx,2013-05-08 22:45:00,
2013-05-08 18:50:00,67.0,65.0,29.98,SSE,157,0.0,1.0,93,0.00,,,0.20,TxWx,2013-05-08 22:50:00,
2013-05-08 18:55:00,67.0,65.0,29.97,ENE,67,0.0,0.0,92,0.00,,,0.20,TxWx,2013-05-08 22:55:00,
2013-05-08 19:00:00,67.0,64.0,29.97,ENE,67,2.0,2.0,92,0.00,,,0.20,TxWx,2013-05-08 23:00:00,
2013-05-08 19:05:00,67.0,64.0,29.98,East,90,1.0,2.0,92,0.00,,,0.20,TxWx,2013-05-08 23:05:00,
2013-05-08 19:10:00,67.0,64.0,29.98,East,90,3.0,3.0,91,0.00,,,0.20,TxWx,2013-05-08 23:10:00,
2013-05-08 19:15:00,67.0,64.0,29.98,ENE,67,3.0,3.0,91,0.00,,,0.20,TxWx,2013-05-08 23:15:00,
2013-05-08 19:20:00,67.0,64.0,29.98,ENE,67,3.0,3.0,91,0.00,,,0.20,TxWx,2013-05-08 23:20:00,
2013-05-08 19:25:00,67.0,64.0,29.98,ENE,67,0.0,2.0,91,0.00,,,0.20,TxWx,2013-05-08 23:25:00,
2013-05-08 19:30:00,67.0,64.0,29.98,ENE,67,3.0,5.0,91,0.00,,,0.20,TxWx,2013-05-08 23:30:00,
2013-05-08 19:36:00,67.0,64.0,29.98,ESE,112,3.0,5.0,90,0.00,,,0.20,TxWx,2013-05-08 23:36:00,
2013-05-08 19:41:00,67.0,64.0,29.98,ENE,67,3.0,5.0,90,0.00,,,0.20,TxWx,2013-05-08 23:41:00,
2013-05-08 19:46:00,67.0,64.0,29.98,East,90,2.0,3.0,90,0.00,,,0.20,TxWx,2013-05-08 23:46:00,
2013-05-08 19:51:00,67.0,64.0,29.98,ESE,112,3.0,3.0,90,0.00,,,0.20,TxWx,2013-05-08 23:51:00,
2013-05-08 19:56:00,67.0,64.0,29.98,SE,135,1.0,3.0,90,0.00,,,0.20,TxWx,2013-05-08 23:56:00,
2013-05-08 20:01:00,67.0,64.0,29.98,SSE,157,0.0,1.0,90,0.00,,,0.20,TxWx,2013-05-09 00:01:00,
2013-05-08 20:06:00,67.0,64.0,29.98,ESE,112,3.0,3.0,90,0.00,,,0.20,TxWx,2013-05-09 00:06:00,
2013-05-08 20:11:00,66.0,63.0,29.98,ESE,112,3.0,3.0,91,0.00,,,0.20,TxWx,2013-05-09 00:11:00,
2013-05-08 20:16:00,66.0,63.0,29.98,SSE,157,3.0,3.0,91,0.00,,,0.20,TxWx,2013-05-09 00:16:00,
2013-05-08 20:21:00,66.0,63.0,29.98,ESE,112,3.0,3.0,91,0.00,,,0.20,TxWx,2013-05-09 00:21:00,
2013-05-08 20:27:00,66.0,63.0,29.98,SE,135,0.0,1.0,91,0.00,,,0.20,TxWx,2013-05-09 00:27:00,
2013-05-08 20:32:00,66.0,63.0,29.99,SSE,157,2.0,3.0,91,0.00,,,0.20,TxWx,2013-05-09 00:32:00,
2013-05-08 20:37:00,66.0,63.0,29.99,SE,135,3.0,3.0,92,0.00,,,0.20,TxWx,2013-05-09 00:37:00,
2013-05-08 20:42:00,66.0,63.0,29.99,SE,135,2.0,3.0,92,0.00,,,0.20,TxWx,2013-05-09 00:42:00,
2013-05-08 20:47:00,66.0,63.0,29.99,East,90,1.0,3.0,92,0.00,,,0.20,TxWx,2013-05-09 00:47:00,
2013-05-08 20:52:00,66.0,63.0,29.99,East,90,3.0,5.0,92,0.00,,,0.20,TxWx,2013-05-09 00:52:00,
2013-05-08 20:57:00,66.0,63.0,29.99,SE,135,4.0,5.0,92,0.00,,,0.20,TxWx,2013-05-09 00:57:00,
2013-05-08 21:02:00,65.0,62.0,29.99,SE,135,3.0,3.0,92,0.00,,,0.20,TxWx,2013-05-09 01:02:00,
2013-05-08 21:07:00,65.0,63.0,30.00,SE,135,3.0,4.0,92,0.00,,,0.20,TxWx,2013-05-09 01:07:00,
2013-05-08 21:12:00,65.0,63.0,30.00,SSE,157,3.0,4.0,92,0.00,,,0.20,TxWx,2013-05-09 01:12:00,
2013-05-08 21:17:00,65.0,63.0,30.00,SSE,157,3.0,3.0,92,0.00,,,0.20,TxWx,2013-05-09 01:17:00,
2013-05-08 21:22:00,65.0,63.0,30.00,SE,135,3.0,3.0,92,0.00,,,0.20,TxWx,2013-05-09 01:22:00,
2013-05-08 21:27:00,65.0,63.0,30.00,SSE,157,5.0,5.0,92,0.00,,,0.20,TxWx,2013-05-09 01:27:00,
2013-05-08 21:32:00,65.0,62.0,30.00,SE,135,1.0,2.0,92,0.00,,,0.20,TxWx,2013-05-09 01:32:00,
2013-05-08 21:37:00,65.0,62.0,30.00,SSE,157,3.0,3.0,92,0.00,,,0.20,TxWx,2013-05-09 01:37:00,
2013-05-08 21:43:00,65.0,63.0,30.01,ESE,112,5.0,5.0,92,0.00,,,0.20,TxWx,2013-05-09 01:43:00,
2013-05-08 21:48:00,65.0,63.0,30.01,SE,135,2.0,2.0,92,0.00,,,0.20,TxWx,2013-05-09 01:48:00,
2013-05-08 21:53:00,65.0,63.0,30.01,SSE,157,5.0,5.0,92,0.00,,,0.20,TxWx,2013-05-09 01:53:00,
2013-05-08 21:58:00,65.0,63.0,30.01,SE,135,3.0,4.0,92,0.00,,,0.20,TxWx,2013-05-09 01:58:00,
2013-05-08 22:03:00,65.0,63.0,30.01,SSE,157,2.0,2.0,92,0.00,,,0.20,TxWx,2013-05-09 02:03:00,
2013-05-08 22:08:00,65.0,62.0,30.01,South,180,3.0,5.0,92,0.00,,,0.20,TxWx,2013-05-09 02:08:00,
2013-05-08 22:13:00,65.0,62.0,30.01,South,180,3.0,3.0,92,0.00,,,0.20,TxWx,2013-05-09 02:13:00,
2013-05-08 22:18:00,65.0,62.0,30.01,South,180,0.0,0.0,92,0.00,,,0.20,TxWx,2013-05-09 02:18:00,
2013-05-08 22:23:00,65.0,62.0,30.01,South,180,0.0,1.0,92,0.00,,,0.20,TxWx,2013-05-09 02:23:00,
2013-05-08 22:28:00,64.0,61.0,30.01,South,180,0.0,1.0,92,0.00,,,0.20,TxWx,2013-05-09 02:28:00,
2013-05-08 22:33:00,64.0,61.0,30.01,South,180,2.0,2.0,92,0.00,,,0.20,TxWx,2013-05-09 02:33:00,
2013-05-08 22:38:00,64.0,61.0,30.01,South,180,3.0,3.0,92,0.00,,,0.20,TxWx,2013-05-09 02:38:00,
2013-05-08 22:44:00,64.0,62.0,30.01,South,180,3.0,3.0,92,0.00,,,0.20,TxWx,2013-05-09 02:44:00,
2013-05-08 22:49:00,64.0,62.0,30.01,South,180,0.0,1.0,92,0.00,,,0.20,TxWx,2013-05-09 02:49:00,
2013-05-08 22:54:00,64.0,62.0,30.01,SE,135,0.0,1.0,92,0.00,,,0.20,TxWx,2013-05-09 02:54:00,
2013-05-08 22:59:00,64.0,62.0,30.01,SSE,157,1.0,1.0,93,0.00,,,0.20,TxWx,2013-05-09 02:59:00,
2013-05-08 23:04:00,64.0,62.0,30.01,South,180,3.0,3.0,93,0.00,,,0.20,TxWx,2013-05-09 03:04:00,
2013-05-08 23:09:00,63.0,61.0,30.01,South,180,4.0,4.0,93,0.00,,,0.20,TxWx,2013-05-09 03:09:00,
2013-05-08 23:14:00,63.0,61.0,30.01,SE,135,2.0,3.0,93,0.00,,,0.20,TxWx,2013-05-09 03:14:00,
2013-05-08 23:19:00,63.0,61.0,30.01,SSE,157,3.0,4.0,93,0.00,,,0.20,TxWx,2013-05-09 03:19:00,
2013-05-08 23:24:00,63.0,61.0,30.01,SE,135,1.0,2.0,93,0.00,,,0.20,TxWx,2013-05-09 03:24:00,
2013-05-08 23:29:00,63.0,61.0,30.01,ESE,112,1.0,3.0,93,0.00,,,0.20,TxWx,2013-05-09 03:29:00,
2013-05-08 23:34:00,63.0,61.0,30.01,ESE,112,2.0,3.0,93,0.00,,,0.20,TxWx,2013-05-09 03:34:00,
2013-05-08 23:39:00,63.0,61.0,30.00,SE,135,6.0,6.0,93,0.00,,,0.20,TxWx,2013-05-09 03:39:00,
2013-05-08 23:44:00,63.0,61.0,30.00,ESE,112,6.0,9.0,93,0.00,,,0.20,TxWx,2013-05-09 03:44:00,
2013-05-08 23:49:00,63.0,61.0,30.00,SE,135,6.0,9.0,93,0.00,,,0.20,TxWx,2013-05-09 03:49:00,
2013-05-08 23:55:00,63.0,61.0,30.00,ESE,112,4.0,5.0,92,0.00,,,0.20,TxWx,2013-05-09 03:55:00,